createdAt,value
2018-09-27T00:01:05.124Z,80.21
2018-09-27T00:03:33.498Z,79.21
2018-09-27T00:06:01.821Z,80.57
2018-09-27T00:08:30.043Z,79.21
2018-09-27T00:10:58.300Z,79.82
2018-09-27T00:13:26.502Z,80.76
2018-09-27T00:15:54.782Z,80.88
2018-09-27T00:18:23.025Z,79.81
2018-09-27T00:20:51.296Z,79.24
2018-09-27T00:23:19.501Z,80.35
2018-09-27T00:25:47.729Z,80.29
2018-09-27T00:28:15.959Z,80.50
2018-09-27T00:30:44.207Z,79.87
2018-09-27T00:33:12.433Z,80.74
2018-09-27T00:35:40.670Z,80.14
2018-09-27T00:38:08.916Z,80.77
2018-09-27T00:40:37.210Z,81.16
2018-09-27T00:43:05.513Z,81.83
2018-09-27T00:45:33.791Z,82.84
2018-09-27T00:48:02.019Z,82.72
2018-09-27T00:50:30.338Z,81.77
2018-09-27T00:52:58.575Z,82.07
2018-09-27T00:55:26.829Z,81.82
2018-09-27T00:57:55.066Z,81.58
2018-09-27T01:00:23.309Z,80.91
2018-09-27T01:02:51.584Z,81.13
2018-09-27T01:05:19.805Z,81.45
2018-09-27T01:07:48.026Z,81.59
2018-09-27T01:10:16.254Z,82.46
2018-09-27T01:12:44.561Z,82.24
2018-09-27T01:15:12.843Z,81.60
2018-09-27T01:17:41.116Z,81.97
2018-09-27T01:20:09.369Z,81.87
2018-09-27T01:22:37.602Z,81.78
2018-09-27T01:25:05.918Z,82.41
2018-09-27T01:27:34.399Z,81.54
2018-09-27T01:30:02.725Z,82.03
2018-09-27T01:32:30.930Z,82.80
2018-09-27T01:34:59.179Z,82.28
2018-09-27T01:37:27.422Z,82.96
2018-09-27T01:39:55.673Z,82.12
2018-09-27T01:42:23.890Z,82.62
2018-09-27T01:44:52.101Z,82.56
2018-09-27T01:47:20.359Z,82.81
2018-09-27T01:49:48.605Z,83.22
2018-09-27T01:52:16.834Z,83.61
2018-09-27T01:54:45.053Z,83.36
2018-09-27T01:57:13.278Z,84.84
2018-09-27T01:59:41.498Z,83.42
2018-09-27T02:02:09.773Z,84.13
2018-09-27T02:04:38.014Z,82.87
2018-09-27T02:07:06.257Z,84.97
2018-09-27T02:09:34.497Z,83.64
2018-09-27T02:12:02.750Z,82.77
2018-09-27T02:14:30.986Z,82.31
2018-09-27T02:16:59.193Z,82.64
2018-09-27T02:19:27.410Z,82.54
2018-09-27T02:21:55.622Z,82.73
2018-09-27T02:24:23.855Z,83.32
2018-09-27T02:26:52.152Z,83.27
2018-09-27T02:29:20.467Z,82.87
2018-09-27T02:31:48.690Z,82.48
2018-09-27T02:34:16.918Z,83.56
2018-09-27T02:36:45.164Z,84.46
2018-09-27T02:39:13.402Z,83.31
2018-09-27T02:41:41.655Z,84.12
2018-09-27T02:44:10.037Z,84.78
2018-09-27T02:46:38.255Z,84.17
2018-09-27T02:49:06.527Z,83.56
2018-09-27T02:51:34.745Z,83.03
2018-09-27T02:54:02.983Z,84.23
2018-09-27T02:56:31.218Z,84.11
2018-09-27T02:58:59.442Z,84.09
2018-09-27T03:01:27.678Z,83.80
2018-09-27T03:03:55.903Z,83.08
2018-09-27T03:06:24.118Z,83.19
2018-09-27T03:08:52.346Z,84.27
2018-09-27T03:11:20.595Z,83.25
2018-09-27T03:13:48.924Z,83.47
2018-09-27T03:16:17.050Z,83.06
2018-09-27T03:18:45.278Z,83.32
2018-09-27T03:21:13.494Z,82.66
2018-09-27T03:23:41.740Z,84.01
2018-09-27T03:26:09.958Z,84.43
2018-09-27T03:28:38.178Z,85.03
2018-09-27T03:31:06.675Z,84.84
2018-09-27T03:33:34.873Z,83.68
2018-09-27T03:36:03.107Z,83.49
2018-09-27T03:38:31.357Z,83.66
2018-09-27T03:40:59.553Z,83.58
2018-09-27T03:43:27.811Z,84.29
2018-09-27T03:45:56.026Z,84.78
2018-09-27T03:48:24.229Z,84.49
2018-09-27T03:50:52.554Z,84.19
2018-09-27T03:53:20.791Z,83.83
2018-09-27T03:55:49.023Z,83.30
2018-09-27T03:58:17.271Z,82.80
2018-09-27T04:00:45.498Z,84.96
2018-09-27T04:03:13.770Z,83.57
2018-09-27T04:05:41.956Z,84.35
2018-09-27T04:08:10.174Z,84.43
2018-09-27T04:10:38.416Z,84.29
2018-09-27T04:13:06.673Z,85.07
2018-09-27T04:15:34.889Z,84.82
2018-09-27T04:18:03.115Z,85.15
2018-09-27T04:20:35.038Z,84.55
2018-09-27T04:23:03.279Z,84.26
2018-09-27T04:25:31.513Z,83.83
2018-09-27T04:27:59.727Z,85.11
2018-09-27T04:30:27.954Z,84.51
2018-09-27T04:32:56.182Z,83.66
2018-09-27T04:35:24.393Z,84.67
2018-09-27T04:37:52.607Z,84.52
2018-09-27T04:40:20.846Z,84.06
2018-09-27T04:42:49.074Z,86.08
2018-09-27T04:45:17.306Z,86.19
2018-09-27T04:47:45.547Z,86.78
2018-09-27T04:50:13.773Z,85.93
2018-09-27T04:52:42.026Z,86.21
2018-09-27T04:55:10.250Z,86.36
2018-09-27T04:57:38.468Z,86.78
2018-09-27T05:00:06.789Z,86.55
2018-09-27T05:02:34.935Z,87.07
2018-09-27T05:05:03.197Z,86.93
2018-09-27T05:07:31.402Z,87.41
2018-09-27T05:09:59.637Z,87.04
2018-09-27T05:12:27.881Z,87.21
2018-09-27T05:14:56.102Z,88.07
2018-09-27T05:17:24.382Z,88.59
2018-09-27T05:19:52.594Z,88.88
2018-09-27T05:22:20.850Z,87.95
2018-09-27T05:24:49.102Z,87.70
2018-09-27T05:27:18.489Z,88.45
2018-09-27T05:29:46.650Z,87.23
2018-09-27T05:32:14.980Z,87.62
2018-09-27T05:34:43.250Z,87.59
2018-09-27T05:37:11.538Z,88.45
2018-09-27T05:39:40.886Z,87.68
2018-09-27T05:42:09.086Z,86.52
2018-09-27T05:44:37.317Z,86.28
2018-09-27T05:47:05.669Z,86.99
2018-09-27T05:49:34.023Z,87.71
2018-09-27T05:52:02.296Z,87.65
2018-09-27T05:54:31.707Z,87.67
2018-09-27T05:56:59.965Z,87.37
2018-09-27T05:59:28.308Z,87.46
2018-09-27T06:01:56.660Z,86.75
2018-09-27T06:04:24.891Z,87.48
2018-09-27T06:06:53.113Z,88.21
2018-09-27T06:09:21.372Z,87.67
2018-09-27T06:11:49.605Z,88.16
2018-09-27T06:14:17.856Z,87.28
2018-09-27T06:16:46.127Z,87.50
2018-09-27T06:19:14.535Z,86.92
2018-09-27T06:21:43.047Z,86.80
2018-09-27T06:24:11.316Z,85.33
2018-09-27T06:26:39.596Z,86.71
2018-09-27T06:29:08.083Z,86.47
2018-09-27T06:31:36.326Z,85.82
2018-09-27T06:34:04.573Z,86.36
2018-09-27T06:36:32.835Z,85.27
2018-09-27T06:39:01.110Z,85.44
2018-09-27T06:41:29.415Z,83.77
2018-09-27T06:43:57.623Z,83.10
2018-09-27T06:46:25.908Z,82.14
2018-09-27T06:48:54.332Z,80.99
2018-09-27T06:51:22.451Z,80.06
2018-09-27T06:53:50.710Z,79.13
2018-09-27T06:56:18.944Z,79.10
2018-09-27T06:58:47.215Z,76.97
2018-09-27T07:01:15.437Z,76.31
2018-09-27T07:03:43.685Z,76.38
2018-09-27T07:06:11.919Z,76.04
2018-09-27T07:08:40.253Z,75.64
2018-09-27T07:11:08.838Z,74.71
2018-09-27T07:13:37.506Z,73.55
2018-09-27T07:16:05.744Z,72.87
2018-09-27T07:18:34.995Z,71.93
2018-09-27T07:21:03.224Z,73.03
2018-09-27T07:23:31.471Z,71.05
2018-09-27T07:25:59.739Z,70.10
2018-09-27T07:28:27.974Z,69.05
2018-09-27T07:30:56.218Z,69.05
2018-09-27T07:33:24.468Z,68.83
2018-09-27T07:35:52.706Z,68.09
2018-09-27T07:38:20.944Z,67.38
2018-09-27T07:40:49.258Z,64.89
2018-09-27T07:43:17.574Z,64.26
2018-09-27T07:45:45.793Z,65.14
2018-09-27T07:48:14.048Z,64.38
2018-09-27T07:50:42.324Z,63.21
2018-09-27T07:53:10.465Z,63.02
2018-09-27T07:55:38.686Z,64.60
2018-09-27T07:58:07.341Z,63.05
2018-09-27T08:00:36.686Z,62.78
2018-09-27T08:03:04.972Z,64.74
2018-09-27T08:05:33.154Z,61.00
2018-09-27T08:08:01.388Z,60.07
2018-09-27T08:10:29.674Z,60.59
2018-09-27T08:12:57.893Z,58.54
2018-09-27T08:15:26.138Z,55.91
2018-09-27T08:17:54.427Z,58.01
2018-09-27T08:20:22.712Z,59.56
2018-09-27T08:22:50.918Z,55.31
2018-09-27T08:25:21.272Z,56.82
2018-09-27T08:27:49.557Z,53.60
2018-09-27T08:30:17.811Z,56.41
2018-09-27T08:32:46.114Z,56.26
2018-09-27T08:35:14.418Z,56.18
2018-09-27T08:37:42.703Z,57.24
2018-09-27T08:40:11.031Z,57.25
2018-09-27T08:42:39.417Z,56.74
2018-09-27T08:45:08.234Z,56.14
2018-09-27T08:47:37.465Z,59.21
2018-09-27T08:50:05.822Z,56.74
2018-09-27T08:52:34.150Z,56.22
2018-09-27T08:55:02.411Z,55.72
2018-09-27T08:57:30.761Z,57.01
2018-09-27T08:59:58.979Z,56.65
2018-09-27T09:02:27.285Z,56.88
2018-09-27T09:04:55.639Z,55.90
2018-09-27T09:07:23.941Z,58.01
2018-09-27T09:09:52.191Z,56.31
2018-09-27T09:12:21.066Z,56.29
2018-09-27T09:14:49.342Z,55.67
2018-09-27T09:17:17.642Z,55.24
2018-09-27T09:19:45.847Z,54.30
2018-09-27T09:22:14.083Z,54.70
2018-09-27T09:24:42.419Z,54.27
2018-09-27T09:27:10.808Z,53.87
2018-09-27T09:29:39.171Z,54.00
2018-09-27T09:32:07.306Z,53.43
2018-09-27T09:34:35.604Z,53.03
2018-09-27T09:37:03.955Z,51.43
2018-09-27T09:39:32.186Z,53.87
2018-09-27T09:42:00.422Z,52.85
2018-09-27T09:44:28.666Z,52.95
2018-09-27T09:46:56.934Z,52.32
2018-09-27T09:49:25.300Z,51.68
2018-09-27T09:51:53.506Z,51.11
2018-09-27T09:54:21.795Z,49.43
2018-09-27T09:56:50.198Z,50.98
2018-09-27T09:59:18.437Z,50.49
2018-09-27T10:01:46.698Z,49.03
2018-09-27T10:04:14.931Z,47.12
2018-09-27T10:06:43.410Z,46.84
2018-09-27T10:09:12.077Z,46.92
2018-09-27T10:11:40.396Z,47.48
2018-09-27T10:14:08.774Z,47.25
2018-09-27T10:16:37.366Z,44.04
2018-09-27T10:19:05.598Z,45.84
2018-09-27T10:21:33.846Z,44.66
2018-09-27T10:24:02.094Z,42.82
2018-09-27T10:26:31.441Z,42.94
2018-09-27T10:28:59.651Z,43.28
2018-09-27T10:31:27.974Z,41.09
2018-09-27T10:33:56.241Z,40.48
2018-09-27T10:36:24.503Z,38.46
2018-09-27T10:38:52.743Z,38.53
2018-09-27T10:41:21.030Z,36.29
2018-09-27T10:43:49.469Z,36.82
2018-09-27T10:46:17.841Z,34.73
2018-09-27T10:48:46.087Z,35.03
2018-09-27T10:51:14.433Z,33.63
2018-09-27T10:53:42.767Z,33.91
2018-09-27T10:56:12.086Z,35.27
2018-09-27T10:58:40.371Z,33.74
2018-09-27T11:01:08.662Z,34.92
2018-09-27T11:03:36.885Z,33.90
2018-09-27T11:06:05.156Z,34.09
2018-09-27T11:08:33.442Z,36.75
2018-09-27T11:11:02.792Z,34.32
2018-09-27T11:13:30.989Z,35.71
2018-09-27T11:15:59.233Z,33.72
2018-09-27T11:18:27.450Z,35.26
2018-09-27T11:20:55.666Z,35.22
2018-09-27T11:23:23.928Z,35.95
2018-09-27T11:25:52.174Z,35.81
2018-09-27T11:28:20.466Z,33.95
2018-09-27T11:30:54.153Z,33.84
2018-09-27T11:33:22.498Z,35.04
2018-09-27T11:35:50.758Z,33.69
2018-09-27T11:38:19.026Z,34.62
2018-09-27T11:40:47.339Z,34.46
2018-09-27T11:43:15.641Z,34.54
2018-09-27T11:45:43.895Z,33.24
2018-09-27T11:48:12.113Z,33.11
2018-09-27T11:50:40.356Z,34.32
2018-09-27T11:53:08.579Z,33.61
2018-09-27T11:55:36.894Z,31.87
2018-09-27T11:58:05.150Z,33.49
2018-09-27T12:00:33.445Z,33.00
2018-09-27T12:03:01.651Z,34.00
2018-09-27T12:05:29.935Z,33.30
2018-09-27T12:07:58.178Z,33.53
2018-09-27T12:10:26.394Z,33.14
2018-09-27T12:12:54.770Z,34.46
2018-09-27T12:15:22.978Z,35.15
2018-09-27T12:17:52.306Z,34.52
2018-09-27T12:20:20.538Z,33.69
2018-09-27T12:22:48.939Z,34.10
2018-09-27T12:25:18.186Z,34.46
2018-09-27T12:27:46.410Z,34.39
2018-09-27T12:30:15.722Z,32.93
2018-09-27T12:32:43.951Z,32.38
2018-09-27T12:35:12.190Z,30.64
2018-09-27T12:37:40.429Z,31.37
2018-09-27T12:40:08.755Z,33.05
2018-09-27T12:42:37.220Z,32.76
2018-09-27T12:45:05.462Z,32.23
2018-09-27T12:47:33.618Z,33.54
2018-09-27T12:50:01.876Z,32.59
2018-09-27T12:52:30.199Z,33.38
2018-09-27T12:54:58.330Z,34.74
2018-09-27T12:57:26.595Z,34.16
2018-09-27T12:59:54.814Z,34.76
2018-09-27T13:02:23.079Z,34.83
2018-09-27T13:04:51.338Z,35.66
2018-09-27T13:07:19.593Z,36.52
2018-09-27T13:09:47.882Z,35.88
2018-09-27T13:12:16.113Z,35.79
2018-09-27T13:14:44.278Z,35.01
2018-09-27T13:17:12.564Z,34.00
2018-09-27T13:19:40.836Z,35.23
2018-09-27T13:22:08.983Z,33.67
2018-09-27T13:24:37.214Z,34.18
2018-09-27T13:27:05.750Z,32.76
2018-09-27T13:29:33.930Z,33.59
2018-09-27T13:32:02.187Z,32.80
2018-09-27T13:34:30.369Z,32.20
2018-09-27T13:36:58.654Z,31.74
2018-09-27T13:39:26.874Z,31.90
2018-09-27T13:41:55.146Z,31.98
2018-09-27T13:44:23.418Z,32.52
2018-09-27T13:46:51.761Z,31.88
2018-09-27T13:49:20.042Z,30.89
2018-09-27T13:51:48.554Z,31.60
2018-09-27T13:54:17.005Z,31.50
2018-09-27T13:56:45.492Z,30.54
2018-09-27T13:59:13.861Z,30.67
2018-09-27T14:01:43.203Z,31.59
2018-09-27T14:04:11.475Z,30.24
2018-09-27T14:06:39.707Z,29.35
2018-09-27T14:09:08.916Z,31.25
2018-09-27T14:11:38.374Z,30.42
2018-09-27T14:14:06.766Z,30.40
2018-09-27T14:16:35.409Z,28.45
2018-09-27T14:19:03.735Z,28.58
2018-09-27T14:21:32.075Z,28.24
2018-09-27T14:24:00.282Z,28.45
2018-09-27T14:26:28.510Z,28.43
2018-09-27T14:28:56.740Z,27.35
2018-09-27T14:31:24.998Z,28.25
2018-09-27T14:33:54.361Z,26.00
2018-09-27T14:36:22.586Z,27.62
2018-09-27T14:38:50.793Z,26.25
2018-09-27T14:41:19.014Z,26.31
2018-09-27T14:43:47.233Z,26.23
2018-09-27T14:46:15.466Z,26.17
2018-09-27T14:48:43.689Z,26.80
2018-09-27T14:51:11.938Z,27.08
2018-09-27T14:53:40.200Z,26.45
2018-09-27T14:56:08.531Z,26.54
2018-09-27T14:58:36.860Z,26.75
2018-09-27T15:01:05.098Z,26.42
2018-09-27T15:03:33.319Z,27.22
2018-09-27T15:06:02.594Z,27.04
2018-09-27T15:08:30.810Z,26.98
2018-09-27T15:10:59.063Z,27.57
2018-09-27T15:13:27.287Z,26.85
2018-09-27T15:15:55.526Z,28.01
2018-09-27T15:18:23.811Z,27.69
2018-09-27T15:20:52.106Z,27.24
2018-09-27T15:23:20.395Z,27.25
2018-09-27T15:25:48.622Z,27.34
2018-09-27T15:28:16.869Z,27.72
2018-09-27T15:30:45.140Z,27.73
2018-09-27T15:33:13.397Z,28.40
2018-09-27T15:35:41.671Z,27.34
2018-09-27T15:38:09.880Z,27.31
2018-09-27T15:40:38.142Z,28.40
2018-09-27T15:43:06.466Z,27.87
2018-09-27T15:45:34.681Z,27.90
2018-09-27T15:48:03.058Z,27.69
2018-09-27T15:50:31.265Z,27.12
2018-09-27T15:52:59.487Z,28.47
2018-09-27T15:55:27.726Z,28.33
2018-09-27T15:57:56.119Z,28.85
2018-09-27T16:00:24.422Z,28.97
2018-09-27T16:02:52.724Z,30.22
2018-09-27T16:05:21.025Z,28.63
2018-09-27T16:07:49.327Z,29.59
2018-09-27T16:10:17.561Z,29.59
2018-09-27T16:12:45.890Z,30.72
2018-09-27T16:15:14.106Z,30.10
2018-09-27T16:17:42.432Z,30.14
2018-09-27T16:20:10.646Z,31.12
2018-09-27T16:22:38.959Z,31.63
2018-09-27T16:25:07.470Z,31.41
2018-09-27T16:27:36.079Z,31.87
2018-09-27T16:30:04.329Z,31.18
2018-09-27T16:32:32.541Z,33.17
2018-09-27T16:35:00.778Z,32.34
2018-09-27T16:37:28.990Z,32.62
2018-09-27T16:39:57.260Z,32.90
2018-09-27T16:42:25.566Z,33.77
2018-09-27T16:44:53.788Z,33.31
2018-09-27T16:47:21.997Z,33.84
2018-09-27T16:49:50.332Z,33.38
2018-09-27T16:52:18.849Z,33.77
2018-09-27T16:54:47.255Z,33.61
2018-09-27T16:57:15.466Z,34.49
2018-09-27T16:59:43.731Z,34.59
2018-09-27T17:02:11.910Z,35.24
2018-09-27T17:04:40.132Z,35.17
2018-09-27T17:07:08.366Z,34.91
2018-09-27T17:09:36.591Z,35.65
2018-09-27T17:12:04.804Z,35.97
2018-09-27T17:14:33.062Z,36.45
2018-09-27T17:17:01.259Z,36.41
2018-09-27T17:19:29.479Z,37.41
2018-09-27T17:21:57.726Z,37.57
2018-09-27T17:24:26.057Z,37.00
2018-09-27T17:26:54.289Z,38.44
2018-09-27T17:29:22.528Z,38.93
2018-09-27T17:31:50.742Z,38.35
2018-09-27T17:34:18.952Z,39.53
2018-09-27T17:36:47.194Z,39.39
2018-09-27T17:39:15.414Z,39.26
2018-09-27T17:41:43.630Z,40.23
2018-09-27T17:44:11.873Z,40.88
2018-09-27T17:46:40.117Z,40.30
2018-09-27T17:49:08.354Z,41.18
2018-09-27T17:51:36.570Z,40.36
2018-09-27T17:54:04.813Z,42.77
2018-09-27T17:56:33.099Z,41.40
2018-09-27T17:59:01.382Z,42.62
2018-09-27T18:01:29.641Z,43.25
2018-09-27T18:03:57.809Z,44.60
2018-09-27T18:06:26.041Z,45.17
2018-09-27T18:08:54.358Z,45.96
2018-09-27T18:11:22.594Z,47.00
2018-09-27T18:13:50.831Z,46.13
2018-09-27T18:16:19.046Z,46.58
2018-09-27T18:18:47.276Z,46.50
2018-09-27T18:21:15.553Z,47.46
2018-09-27T18:23:43.897Z,47.35
2018-09-27T18:26:12.129Z,49.40
2018-09-27T18:28:40.417Z,49.30
2018-09-27T18:31:08.804Z,48.75
2018-09-27T18:33:36.965Z,50.40
2018-09-27T18:36:05.190Z,49.90
2018-09-27T18:38:33.422Z,51.03
2018-09-27T18:41:01.654Z,50.59
2018-09-27T18:43:29.908Z,50.54
2018-09-27T18:45:58.121Z,52.57
2018-09-27T18:48:26.431Z,52.13
2018-09-27T18:50:54.694Z,52.91
2018-09-27T18:53:23.030Z,52.61
2018-09-27T18:55:51.245Z,52.99
2018-09-27T18:58:19.538Z,52.52
2018-09-27T19:00:47.756Z,53.11
2018-09-27T19:03:15.993Z,53.33
2018-09-27T19:05:44.226Z,53.44
2018-09-27T19:08:12.501Z,53.91
2018-09-27T19:10:40.742Z,54.06
2018-09-27T19:13:09.002Z,54.98
2018-09-27T19:15:37.469Z,55.48
2018-09-27T19:18:05.730Z,56.39
2018-09-27T19:20:33.950Z,55.72
2018-09-27T19:23:02.189Z,57.79
2018-09-27T19:25:30.434Z,58.05
2018-09-27T19:27:58.673Z,57.85
2018-09-27T19:30:26.898Z,57.29
2018-09-27T19:32:55.982Z,59.25
2018-09-27T19:35:24.270Z,58.82
2018-09-27T19:37:52.489Z,58.19
2018-09-27T19:40:20.781Z,59.06
2018-09-27T19:42:49.015Z,59.20
2018-09-27T19:45:17.242Z,58.24
2018-09-27T19:47:45.457Z,58.90
2018-09-27T19:50:13.687Z,59.05
2018-09-27T19:52:41.913Z,58.83
2018-09-27T19:55:10.155Z,59.89
2018-09-27T19:57:38.374Z,59.42
2018-09-27T20:00:06.859Z,60.35
2018-09-27T20:02:35.157Z,60.91
2018-09-27T20:05:03.416Z,61.35
2018-09-27T20:07:31.634Z,61.59
2018-09-27T20:09:59.890Z,61.85
2018-09-27T20:12:28.707Z,61.20
2018-09-27T20:14:56.938Z,61.37
2018-09-27T20:17:25.158Z,62.16
2018-09-27T20:19:53.446Z,63.31
2018-09-27T20:22:21.705Z,63.24
2018-09-27T20:24:49.915Z,62.19
2018-09-27T20:27:18.137Z,61.66
2018-09-27T20:29:46.368Z,62.61
2018-09-27T20:32:14.594Z,62.18
2018-09-27T20:34:42.860Z,62.20
2018-09-27T20:37:11.917Z,63.92
2018-09-27T20:39:40.142Z,63.36
2018-09-27T20:42:08.375Z,62.20
2018-09-27T20:44:36.583Z,63.53
2018-09-27T20:47:04.812Z,62.83
2018-09-27T20:49:33.074Z,63.12
2018-09-27T20:52:01.350Z,62.91
2018-09-27T20:54:29.615Z,62.98
2018-09-27T20:56:57.907Z,63.89
2018-09-27T20:59:26.130Z,64.55
2018-09-27T21:01:54.548Z,64.30
2018-09-27T21:04:22.802Z,64.59
2018-09-27T21:06:51.067Z,65.41
2018-09-27T21:09:22.866Z,65.76
2018-09-27T21:11:51.159Z,65.62
2018-09-27T21:14:19.505Z,65.88
2018-09-27T21:16:47.883Z,65.55
2018-09-27T21:19:18.154Z,65.59
2018-09-27T21:21:46.394Z,66.91
2018-09-27T21:24:14.585Z,66.96
2018-09-27T21:26:42.786Z,66.87
2018-09-27T21:29:10.971Z,66.41
2018-09-27T21:31:39.326Z,66.98
2018-09-27T21:34:07.518Z,66.52
2018-09-27T21:36:35.739Z,67.15
2018-09-27T21:39:04.965Z,67.46
2018-09-27T21:41:33.171Z,67.06
2018-09-27T21:44:01.365Z,66.46
2018-09-27T21:46:29.560Z,67.82
2018-09-27T21:48:57.759Z,67.83
2018-09-27T21:51:25.958Z,67.03
2018-09-27T21:53:54.178Z,67.46
2018-09-27T21:56:22.378Z,70.10
2018-09-27T21:58:50.634Z,69.13
2018-09-27T22:01:19.167Z,69.12
2018-09-27T22:03:47.366Z,69.83
2018-09-27T22:06:15.578Z,70.78
2018-09-27T22:08:43.860Z,70.94
2018-09-27T22:11:12.094Z,70.79
2018-09-27T22:13:40.320Z,70.79
2018-09-27T22:16:08.514Z,71.13
2018-09-27T22:18:37.170Z,70.40
2018-09-27T22:21:05.454Z,70.38
2018-09-27T22:23:33.812Z,71.23
2018-09-27T22:26:02.024Z,71.72
2018-09-27T22:28:30.287Z,70.89
2018-09-27T22:30:58.516Z,72.49
2018-09-27T22:33:26.726Z,73.05
2018-09-27T22:35:54.969Z,73.16
2018-09-27T22:38:23.173Z,71.74
2018-09-27T22:40:51.539Z,72.53
2018-09-27T22:43:19.834Z,73.75
2018-09-27T22:45:48.022Z,73.88
2018-09-27T22:48:16.408Z,71.78
2018-09-27T22:50:44.625Z,73.35
2018-09-27T22:53:12.896Z,73.76
2018-09-27T22:55:41.108Z,74.60
2018-09-27T22:58:09.383Z,74.15
2018-09-27T23:00:37.663Z,74.14
2018-09-27T23:03:05.859Z,74.02
2018-09-27T23:05:34.073Z,74.17
2018-09-27T23:08:02.281Z,75.71
2018-09-27T23:10:30.470Z,74.36
2018-09-27T23:12:58.697Z,74.74
2018-09-27T23:15:26.906Z,74.82
2018-09-27T23:17:55.104Z,74.53
2018-09-27T23:20:23.318Z,74.29
2018-09-27T23:22:51.529Z,74.86
2018-09-27T23:25:19.710Z,75.05
2018-09-27T23:27:47.911Z,75.82
2018-09-27T23:30:16.117Z,75.33
2018-09-27T23:32:44.321Z,75.30
2018-09-27T23:35:12.551Z,75.65
2018-09-27T23:37:40.779Z,75.05
2018-09-27T23:40:08.994Z,75.47
2018-09-27T23:42:37.238Z,74.77
2018-09-27T23:45:05.578Z,74.78
2018-09-27T23:47:33.817Z,75.72
2018-09-27T23:50:02.044Z,75.84
2018-09-27T23:52:30.292Z,75.52
2018-09-27T23:54:58.523Z,75.73
2018-09-27T23:57:26.758Z,76.89
2018-09-27T23:59:55.014Z,76.61
